sensor_id;sensor_type;location;lat;lon;timestamp;P1;durP1;ratioP1;P2;durP2;ratioP2
28431;SDS011;15664;51.302;7.744;2022-09-09T00:00:55;6.63;;;1.98;;
28431;SDS011;15664;51.302;7.744;2022-09-09T00:03:44;4.20;;;1.60;;
28431;SDS011;15664;51.302;7.744;2022-09-09T00:06:31;4.67;;;1.53;;
28431;SDS011;15664;51.302;7.744;2022-09-09T00:09:16;4.05;;;1.27;;
28431;SDS011;15664;51.302;7.744;2022-09-09T00:11:47;4.78;;;1.70;;
28431;SDS011;15664;51.302;7.744;2022-09-09T00:14:37;3.88;;;1.25;;
28431;SDS011;15664;51.302;7.744;2022-09-09T00:20:20;5.20;;;1.60;;
28431;SDS011;15664;51.302;7.744;2022-09-09T00:23:03;3.10;;;1.17;;
28431;SDS011;15664;51.302;7.744;2022-09-09T00:25:37;5.05;;;1.30;;
28431;SDS011;15664;51.302;7.744;2022-09-09T00:28:18;5.68;;;1.02;;
28431;SDS011;15664;51.302;7.744;2022-09-09T00:30:47;3.33;;;1.38;;
28431;SDS011;15664;51.302;7.744;2022-09-09T00:33:13;5.37;;;1.53;;
28431;SDS011;15664;51.302;7.744;2022-09-09T00:35:48;3.83;;;1.38;;
28431;SDS011;15664;51.302;7.744;2022-09-09T00:38:28;6.47;;;1.42;;
28431;SDS011;15664;51.302;7.744;2022-09-09T00:43:46;4.60;;;1.48;;
28431;SDS011;15664;51.302;7.744;2022-09-09T00:46:33;3.38;;;1.30;;
28431;SDS011;15664;51.302;7.744;2022-09-09T00:49:32;7.97;;;1.63;;
28431;SDS011;15664;51.302;7.744;2022-09-09T00:55:09;3.97;;;1.37;;
28431;SDS011;15664;51.302;7.744;2022-09-09T00:57:36;4.60;;;1.45;;
28431;SDS011;15664;51.302;7.744;2022-09-09T01:00:17;5.93;;;1.48;;
28431;SDS011;15664;51.302;7.744;2022-09-09T01:05:46;3.33;;;1.38;;
28431;SDS011;15664;51.302;7.744;2022-09-09T01:10:55;5.75;;;1.45;;
28431;SDS011;15664;51.302;7.744;2022-09-09T01:13:28;3.70;;;1.10;;
28431;SDS011;15664;51.302;7.744;2022-09-09T01:15:58;3.17;;;1.27;;
28431;SDS011;15664;51.302;7.744;2022-09-09T01:18:29;3.95;;;1.27;;
28431;SDS011;15664;51.302;7.744;2022-09-09T01:21:12;4.90;;;1.60;;
28431;SDS011;15664;51.302;7.744;2022-09-09T01:24:04;3.92;;;1.60;;
28431;SDS011;15664;51.302;7.744;2022-09-09T01:26:56;4.70;;;1.48;;
28431;SDS011;15664;51.302;7.744;2022-09-09T01:29:26;6.55;;;1.30;;
28431;SDS011;15664;51.302;7.744;2022-09-09T01:31:53;2.53;;;1.10;;
28431;SDS011;15664;51.302;7.744;2022-09-09T01:34:23;3.45;;;1.20;;
28431;SDS011;15664;51.302;7.744;2022-09-09T01:39:27;2.80;;;1.20;;
28431;SDS011;15664;51.302;7.744;2022-09-09T01:41:59;4.25;;;1.45;;
28431;SDS011;15664;51.302;7.744;2022-09-09T01:44:25;4.07;;;1.30;;
28431;SDS011;15664;51.302;7.744;2022-09-09T01:46:52;2.72;;;1.30;;
28431;SDS011;15664;51.302;7.744;2022-09-09T01:49:19;3.78;;;1.50;;
28431;SDS011;15664;51.302;7.744;2022-09-09T01:51:46;4.20;;;1.40;;
28431;SDS011;15664;51.302;7.744;2022-09-09T01:54:29;6.05;;;1.30;;
28431;SDS011;15664;51.302;7.744;2022-09-09T02:08:19;5.10;;;1.40;;
28431;SDS011;15664;51.302;7.744;2022-09-09T02:13:35;4.95;;;1.38;;
28431;SDS011;15664;51.302;7.744;2022-09-09T02:21:42;5.05;;;1.60;;
28431;SDS011;15664;51.302;7.744;2022-09-09T02:24:10;4.57;;;1.50;;
28431;SDS011;15664;51.302;7.744;2022-09-09T02:26:44;4.70;;;1.60;;
28431;SDS011;15664;51.302;7.744;2022-09-09T02:29:21;3.88;;;1.65;;
28431;SDS011;15664;51.302;7.744;2022-09-09T02:31:50;3.60;;;1.17;;
28431;SDS011;15664;51.302;7.744;2022-09-09T02:34:23;6.00;;;1.60;;
28431;SDS011;15664;51.302;7.744;2022-09-09T02:36:52;3.90;;;1.67;;
28431;SDS011;15664;51.302;7.744;2022-09-09T02:39:20;6.63;;;1.50;;
28431;SDS011;15664;51.302;7.744;2022-09-09T02:41:46;3.88;;;1.70;;
28431;SDS011;15664;51.302;7.744;2022-09-09T02:44:13;6.33;;;1.40;;
28431;SDS011;15664;51.302;7.744;2022-09-09T02:47:30;5.97;;;1.52;;
28431;SDS011;15664;51.302;7.744;2022-09-09T02:49:59;6.30;;;1.55;;
28431;SDS011;15664;51.302;7.744;2022-09-09T02:55:29;5.13;;;1.70;;
28431;SDS011;15664;51.302;7.744;2022-09-09T02:58:10;7.50;;;1.30;;
28431;SDS011;15664;51.302;7.744;2022-09-09T03:00:44;4.80;;;1.45;;
28431;SDS011;15664;51.302;7.744;2022-09-09T03:03:11;6.18;;;1.80;;
28431;SDS011;15664;51.302;7.744;2022-09-09T03:05:37;4.13;;;1.65;;
28431;SDS011;15664;51.302;7.744;2022-09-09T03:08:04;6.03;;;2.00;;
28431;SDS011;15664;51.302;7.744;2022-09-09T03:10:31;5.90;;;2.10;;
28431;SDS011;15664;51.302;7.744;2022-09-09T03:12:57;5.22;;;1.60;;
28431;SDS011;15664;51.302;7.744;2022-09-09T03:15:25;6.38;;;1.60;;
28431;SDS011;15664;51.302;7.744;2022-09-09T03:17:54;5.78;;;1.80;;
28431;SDS011;15664;51.302;7.744;2022-09-09T03:20:20;2.77;;;1.47;;
28431;SDS011;15664;51.302;7.744;2022-09-09T03:22:46;5.93;;;1.70;;
28431;SDS011;15664;51.302;7.744;2022-09-09T03:25:12;4.55;;;1.73;;
28431;SDS011;15664;51.302;7.744;2022-09-09T03:27:38;3.80;;;1.73;;
28431;SDS011;15664;51.302;7.744;2022-09-09T03:30:04;6.93;;;2.22;;
28431;SDS011;15664;51.302;7.744;2022-09-09T03:32:30;5.53;;;1.57;;
28431;SDS011;15664;51.302;7.744;2022-09-09T03:34:56;5.30;;;1.80;;
28431;SDS011;15664;51.302;7.744;2022-09-09T03:37:21;7.10;;;1.63;;
28431;SDS011;15664;51.302;7.744;2022-09-09T03:39:48;9.73;;;2.45;;
28431;SDS011;15664;51.302;7.744;2022-09-09T03:42:15;6.00;;;1.70;;
28431;SDS011;15664;51.302;7.744;2022-09-09T03:44:48;5.05;;;1.65;;
28431;SDS011;15664;51.302;7.744;2022-09-09T03:47:16;8.02;;;2.08;;
28431;SDS011;15664;51.302;7.744;2022-09-09T03:49:45;7.23;;;2.20;;
28431;SDS011;15664;51.302;7.744;2022-09-09T03:52:11;5.38;;;1.88;;
28431;SDS011;15664;51.302;7.744;2022-09-09T03:54:37;4.70;;;1.63;;
28431;SDS011;15664;51.302;7.744;2022-09-09T03:57:03;4.40;;;1.60;;
28431;SDS011;15664;51.302;7.744;2022-09-09T03:59:29;5.90;;;1.67;;
28431;SDS011;15664;51.302;7.744;2022-09-09T04:01:55;6.32;;;1.90;;
28431;SDS011;15664;51.302;7.744;2022-09-09T04:04:22;5.37;;;1.80;;
28431;SDS011;15664;51.302;7.744;2022-09-09T04:06:47;7.00;;;2.13;;
28431;SDS011;15664;51.302;7.744;2022-09-09T04:09:13;6.17;;;2.00;;
28431;SDS011;15664;51.302;7.744;2022-09-09T04:11:41;7.40;;;1.95;;
28431;SDS011;15664;51.302;7.744;2022-09-09T04:14:07;6.75;;;1.77;;
28431;SDS011;15664;51.302;7.744;2022-09-09T04:16:33;6.05;;;1.83;;
28431;SDS011;15664;51.302;7.744;2022-09-09T04:18:59;3.03;;;1.50;;
28431;SDS011;15664;51.302;7.744;2022-09-09T04:21:25;5.38;;;1.90;;
28431;SDS011;15664;51.302;7.744;2022-09-09T04:23:52;3.95;;;1.50;;
28431;SDS011;15664;51.302;7.744;2022-09-09T04:26:17;5.67;;;1.60;;
28431;SDS011;15664;51.302;7.744;2022-09-09T04:28:44;5.28;;;1.58;;
28431;SDS011;15664;51.302;7.744;2022-09-09T04:31:18;4.38;;;1.90;;
28431;SDS011;15664;51.302;7.744;2022-09-09T04:33:47;5.23;;;1.80;;
28431;SDS011;15664;51.302;7.744;2022-09-09T04:36:13;5.93;;;1.88;;
28431;SDS011;15664;51.302;7.744;2022-09-09T04:38:38;7.63;;;1.90;;
28431;SDS011;15664;51.302;7.744;2022-09-09T04:41:04;7.07;;;1.70;;
28431;SDS011;15664;51.302;7.744;2022-09-09T04:43:32;3.88;;;1.80;;
28431;SDS011;15664;51.302;7.744;2022-09-09T04:46:01;5.43;;;1.67;;
28431;SDS011;15664;51.302;7.744;2022-09-09T04:48:26;6.55;;;1.80;;
28431;SDS011;15664;51.302;7.744;2022-09-09T04:50:56;7.38;;;2.50;;
28431;SDS011;15664;51.302;7.744;2022-09-09T04:53:30;8.23;;;1.80;;
28431;SDS011;15664;51.302;7.744;2022-09-09T04:56:10;5.28;;;1.48;;
28431;SDS011;15664;51.302;7.744;2022-09-09T04:58:41;5.13;;;1.70;;
28431;SDS011;15664;51.302;7.744;2022-09-09T05:01:09;6.22;;;1.88;;
28431;SDS011;15664;51.302;7.744;2022-09-09T05:03:38;6.68;;;1.98;;
28431;SDS011;15664;51.302;7.744;2022-09-09T05:06:09;7.53;;;1.80;;
28431;SDS011;15664;51.302;7.744;2022-09-09T05:08:37;4.18;;;1.70;;
28431;SDS011;15664;51.302;7.744;2022-09-09T05:11:04;5.87;;;1.80;;
28431;SDS011;15664;51.302;7.744;2022-09-09T05:13:38;3.90;;;1.60;;
28431;SDS011;15664;51.302;7.744;2022-09-09T05:16:03;5.40;;;1.80;;
28431;SDS011;15664;51.302;7.744;2022-09-09T05:18:29;4.82;;;2.00;;
28431;SDS011;15664;51.302;7.744;2022-09-09T05:20:59;5.57;;;1.80;;
28431;SDS011;15664;51.302;7.744;2022-09-09T05:23:26;6.90;;;2.10;;
28431;SDS011;15664;51.302;7.744;2022-09-09T05:25:58;9.33;;;2.20;;
28431;SDS011;15664;51.302;7.744;2022-09-09T05:28:24;10.73;;;2.80;;
28431;SDS011;15664;51.302;7.744;2022-09-09T05:30:58;5.25;;;2.08;;
28431;SDS011;15664;51.302;7.744;2022-09-09T05:33:33;6.07;;;1.80;;
28431;SDS011;15664;51.302;7.744;2022-09-09T05:36:07;5.13;;;1.40;;
28431;SDS011;15664;51.302;7.744;2022-09-09T05:38:35;8.30;;;2.00;;
28431;SDS011;15664;51.302;7.744;2022-09-09T05:41:02;6.40;;;1.60;;
28431;SDS011;15664;51.302;7.744;2022-09-09T05:43:29;6.63;;;1.77;;
28431;SDS011;15664;51.302;7.744;2022-09-09T05:46:07;5.57;;;1.60;;
28431;SDS011;15664;51.302;7.744;2022-09-09T05:48:34;7.17;;;1.77;;
28431;SDS011;15664;51.302;7.744;2022-09-09T05:51:02;4.05;;;1.48;;
28431;SDS011;15664;51.302;7.744;2022-09-09T05:53:29;4.95;;;1.67;;
28431;SDS011;15664;51.302;7.744;2022-09-09T05:56:03;6.43;;;1.80;;
28431;SDS011;15664;51.302;7.744;2022-09-09T05:58:33;6.55;;;1.90;;
28431;SDS011;15664;51.302;7.744;2022-09-09T06:01:00;5.00;;;1.83;;
28431;SDS011;15664;51.302;7.744;2022-09-09T06:03:27;6.53;;;1.60;;
28431;SDS011;15664;51.302;7.744;2022-09-09T06:05:59;5.40;;;1.40;;
28431;SDS011;15664;51.302;7.744;2022-09-09T06:08:26;4.88;;;1.67;;
28431;SDS011;15664;51.302;7.744;2022-09-09T06:10:52;8.70;;;1.73;;
28431;SDS011;15664;51.302;7.744;2022-09-09T06:13:18;5.63;;;1.90;;
28431;SDS011;15664;51.302;7.744;2022-09-09T06:15:50;6.00;;;1.30;;
28431;SDS011;15664;51.302;7.744;2022-09-09T06:18:18;5.63;;;1.50;;
28431;SDS011;15664;51.302;7.744;2022-09-09T06:20:54;5.88;;;1.20;;
28431;SDS011;15664;51.302;7.744;2022-09-09T06:23:19;4.72;;;1.38;;
28431;SDS011;15664;51.302;7.744;2022-09-09T06:25:45;3.83;;;1.50;;
28431;SDS011;15664;51.302;7.744;2022-09-09T06:28:11;3.30;;;1.38;;
28431;SDS011;15664;51.302;7.744;2022-09-09T06:30:36;5.87;;;1.70;;
28431;SDS011;15664;51.302;7.744;2022-09-09T06:33:02;3.93;;;1.43;;
28431;SDS011;15664;51.302;7.744;2022-09-09T06:35:28;3.75;;;1.17;;
28431;SDS011;15664;51.302;7.744;2022-09-09T06:37:54;4.27;;;1.50;;
28431;SDS011;15664;51.302;7.744;2022-09-09T06:40:19;4.03;;;1.60;;
28431;SDS011;15664;51.302;7.744;2022-09-09T06:42:45;2.80;;;1.40;;
28431;SDS011;15664;51.302;7.744;2022-09-09T06:45:22;4.03;;;1.75;;
28431;SDS011;15664;51.302;7.744;2022-09-09T06:47:54;6.50;;;1.50;;
28431;SDS011;15664;51.302;7.744;2022-09-09T06:50:21;6.47;;;1.60;;
28431;SDS011;15664;51.302;7.744;2022-09-09T06:52:47;6.55;;;1.60;;
28431;SDS011;15664;51.302;7.744;2022-09-09T06:55:13;5.68;;;1.27;;
28431;SDS011;15664;51.302;7.744;2022-09-09T06:57:41;5.18;;;1.60;;
28431;SDS011;15664;51.302;7.744;2022-09-09T07:00:14;5.43;;;1.73;;
28431;SDS011;15664;51.302;7.744;2022-09-09T07:02:39;5.17;;;1.73;;
28431;SDS011;15664;51.302;7.744;2022-09-09T07:05:07;5.87;;;1.70;;
28431;SDS011;15664;51.302;7.744;2022-09-09T07:07:34;5.18;;;1.60;;
28431;SDS011;15664;51.302;7.744;2022-09-09T07:09:59;6.43;;;2.17;;
28431;SDS011;15664;51.302;7.744;2022-09-09T07:12:24;3.60;;;1.77;;
28431;SDS011;15664;51.302;7.744;2022-09-09T07:14:55;7.13;;;1.87;;
28431;SDS011;15664;51.302;7.744;2022-09-09T07:17:21;4.78;;;1.67;;
28431;SDS011;15664;51.302;7.744;2022-09-09T07:19:46;6.93;;;2.00;;
28431;SDS011;15664;51.302;7.744;2022-09-09T07:22:14;6.60;;;2.05;;
28431;SDS011;15664;51.302;7.744;2022-09-09T07:24:40;5.07;;;2.37;;
28431;SDS011;15664;51.302;7.744;2022-09-09T07:27:05;5.03;;;1.75;;
28431;SDS011;15664;51.302;7.744;2022-09-09T07:29:31;7.10;;;1.80;;
28431;SDS011;15664;51.302;7.744;2022-09-09T07:31:56;4.77;;;1.67;;
28431;SDS011;15664;51.302;7.744;2022-09-09T07:34:28;6.93;;;1.98;;
28431;SDS011;15664;51.302;7.744;2022-09-09T07:36:54;5.40;;;1.50;;
28431;SDS011;15664;51.302;7.744;2022-09-09T07:39:19;5.10;;;1.80;;
28431;SDS011;15664;51.302;7.744;2022-09-09T07:41:48;6.05;;;1.70;;
28431;SDS011;15664;51.302;7.744;2022-09-09T07:44:18;4.57;;;1.60;;
28431;SDS011;15664;51.302;7.744;2022-09-09T07:46:48;6.13;;;1.67;;
28431;SDS011;15664;51.302;7.744;2022-09-09T07:49:17;3.83;;;1.88;;
28431;SDS011;15664;51.302;7.744;2022-09-09T07:51:44;7.50;;;1.73;;
28431;SDS011;15664;51.302;7.744;2022-09-09T07:54:13;5.85;;;1.65;;
28431;SDS011;15664;51.302;7.744;2022-09-09T07:56:42;7.57;;;1.60;;
28431;SDS011;15664;51.302;7.744;2022-09-09T07:59:09;3.33;;;1.20;;
28431;SDS011;15664;51.302;7.744;2022-09-09T08:01:40;4.53;;;1.30;;
28431;SDS011;15664;51.302;7.744;2022-09-09T08:04:09;5.30;;;1.60;;
28431;SDS011;15664;51.302;7.744;2022-09-09T08:06:41;5.18;;;1.55;;
28431;SDS011;15664;51.302;7.744;2022-09-09T08:09:10;4.95;;;1.60;;
28431;SDS011;15664;51.302;7.744;2022-09-09T08:11:37;5.38;;;1.50;;
28431;SDS011;15664;51.302;7.744;2022-09-09T08:14:03;3.33;;;1.37;;
28431;SDS011;15664;51.302;7.744;2022-09-09T08:16:30;4.85;;;1.40;;
28431;SDS011;15664;51.302;7.744;2022-09-09T08:18:59;8.90;;;2.00;;
28431;SDS011;15664;51.302;7.744;2022-09-09T08:21:25;7.53;;;1.50;;
28431;SDS011;15664;51.302;7.744;2022-09-09T08:23:54;6.85;;;2.15;;
28431;SDS011;15664;51.302;7.744;2022-09-09T08:26:21;5.55;;;1.50;;
28431;SDS011;15664;51.302;7.744;2022-09-09T08:28:49;7.35;;;1.88;;
28431;SDS011;15664;51.302;7.744;2022-09-09T08:31:23;9.10;;;1.38;;
28431;SDS011;15664;51.302;7.744;2022-09-09T08:33:50;4.07;;;1.37;;
28431;SDS011;15664;51.302;7.744;2022-09-09T08:36:18;5.65;;;1.23;;
28431;SDS011;15664;51.302;7.744;2022-09-09T08:38:50;2.27;;;1.07;;
28431;SDS011;15664;51.302;7.744;2022-09-09T08:41:36;3.75;;;1.25;;
28431;SDS011;15664;51.302;7.744;2022-09-09T08:44:40;5.05;;;1.50;;
28431;SDS011;15664;51.302;7.744;2022-09-09T08:47:28;4.07;;;1.20;;
28431;SDS011;15664;51.302;7.744;2022-09-09T08:50:27;4.60;;;1.42;;
28431;SDS011;15664;51.302;7.744;2022-09-09T08:55:47;4.28;;;1.50;;
28431;SDS011;15664;51.302;7.744;2022-09-09T08:58:19;7.03;;;1.60;;
28431;SDS011;15664;51.302;7.744;2022-09-09T09:06:59;4.33;;;1.27;;
28431;SDS011;15664;51.302;7.744;2022-09-09T09:12:21;3.95;;;1.38;;
28431;SDS011;15664;51.302;7.744;2022-09-09T09:14:50;4.97;;;1.20;;
28431;SDS011;15664;51.302;7.744;2022-09-09T09:17:17;5.50;;;1.30;;
28431;SDS011;15664;51.302;7.744;2022-09-09T09:19:44;5.87;;;1.43;;
28431;SDS011;15664;51.302;7.744;2022-09-09T09:27:44;6.32;;;1.20;;
28431;SDS011;15664;51.302;7.744;2022-09-09T09:30:35;4.07;;;1.10;;
28431;SDS011;15664;51.302;7.744;2022-09-09T09:35:51;4.60;;;1.17;;
28431;SDS011;15664;51.302;7.744;2022-09-09T09:38:24;4.43;;;1.42;;
28431;SDS011;15664;51.302;7.744;2022-09-09T09:40:55;4.65;;;1.17;;
28431;SDS011;15664;51.302;7.744;2022-09-09T09:43:27;4.45;;;1.50;;
28431;SDS011;15664;51.302;7.744;2022-09-09T09:45:55;6.40;;;1.60;;
28431;SDS011;15664;51.302;7.744;2022-09-09T09:48:26;5.85;;;1.50;;
28431;SDS011;15664;51.302;7.744;2022-09-09T09:53:29;5.78;;;1.60;;
28431;SDS011;15664;51.302;7.744;2022-09-09T09:58:30;5.53;;;1.47;;
28431;SDS011;15664;51.302;7.744;2022-09-09T10:00:59;5.45;;;1.40;;
28431;SDS011;15664;51.302;7.744;2022-09-09T10:03:28;5.40;;;1.48;;
28431;SDS011;15664;51.302;7.744;2022-09-09T10:05:56;4.95;;;1.35;;
28431;SDS011;15664;51.302;7.744;2022-09-09T10:08:23;6.05;;;1.30;;
28431;SDS011;15664;51.302;7.744;2022-09-09T10:10:52;5.37;;;1.30;;
28431;SDS011;15664;51.302;7.744;2022-09-09T10:19:34;3.00;;;0.95;;
28431;SDS011;15664;51.302;7.744;2022-09-09T10:27:29;3.33;;;1.13;;
28431;SDS011;15664;51.302;7.744;2022-09-09T10:32:56;3.55;;;1.20;;
28431;SDS011;15664;51.302;7.744;2022-09-09T10:35:39;5.68;;;1.25;;
28431;SDS011;15664;51.302;7.744;2022-09-09T10:38:30;4.63;;;1.10;;
28431;SDS011;15664;51.302;7.744;2022-09-09T10:41:09;4.40;;;1.00;;
28431;SDS011;15664;51.302;7.744;2022-09-09T10:43:46;4.70;;;1.10;;
28431;SDS011;15664;51.302;7.744;2022-09-09T10:46:23;3.30;;;1.08;;
28431;SDS011;15664;51.302;7.744;2022-09-09T10:57:13;4.13;;;1.45;;
28431;SDS011;15664;51.302;7.744;2022-09-09T11:00:05;3.67;;;0.90;;
28431;SDS011;15664;51.302;7.744;2022-09-09T11:02:33;2.85;;;1.40;;
28431;SDS011;15664;51.302;7.744;2022-09-09T11:07:26;4.97;;;0.93;;
28431;SDS011;15664;51.302;7.744;2022-09-09T11:09:59;5.10;;;1.20;;
28431;SDS011;15664;51.302;7.744;2022-09-09T11:12:31;3.08;;;1.20;;
28431;SDS011;15664;51.302;7.744;2022-09-09T11:15:04;2.22;;;0.85;;
28431;SDS011;15664;51.302;7.744;2022-09-09T11:17:40;4.57;;;1.23;;
28431;SDS011;15664;51.302;7.744;2022-09-09T11:20:12;3.10;;;1.30;;
28431;SDS011;15664;51.302;7.744;2022-09-09T11:25:42;3.97;;;0.95;;
28431;SDS011;15664;51.302;7.744;2022-09-09T11:31:03;2.70;;;1.20;;
28431;SDS011;15664;51.302;7.744;2022-09-09T11:42:20;4.00;;;1.20;;
28431;SDS011;15664;51.302;7.744;2022-09-09T11:44:48;2.70;;;0.98;;
28431;SDS011;15664;51.302;7.744;2022-09-09T11:47:23;4.03;;;1.23;;
28431;SDS011;15664;51.302;7.744;2022-09-09T11:49:54;3.50;;;1.05;;
28431;SDS011;15664;51.302;7.744;2022-09-09T11:52:40;5.30;;;1.20;;
28431;SDS011;15664;51.302;7.744;2022-09-09T11:55:20;4.28;;;1.40;;
28431;SDS011;15664;51.302;7.744;2022-09-09T11:58:03;4.40;;;1.30;;
28431;SDS011;15664;51.302;7.744;2022-09-09T12:00:49;3.30;;;1.00;;
28431;SDS011;15664;51.302;7.744;2022-09-09T12:05:59;2.58;;;1.10;;
28431;SDS011;15664;51.302;7.744;2022-09-09T12:08:34;5.03;;;1.20;;
28431;SDS011;15664;51.302;7.744;2022-09-09T12:11:01;5.20;;;1.30;;
28431;SDS011;15664;51.302;7.744;2022-09-09T12:13:28;2.78;;;1.00;;
28431;SDS011;15664;51.302;7.744;2022-09-09T12:15:54;3.35;;;1.10;;
28431;SDS011;15664;51.302;7.744;2022-09-09T12:21:01;2.45;;;1.05;;
28431;SDS011;15664;51.302;7.744;2022-09-09T12:23:34;4.65;;;1.30;;
28431;SDS011;15664;51.302;7.744;2022-09-09T12:27:21;2.60;;;1.17;;
28431;SDS011;15664;51.302;7.744;2022-09-09T12:31:46;2.90;;;0.90;;
28431;SDS011;15664;51.302;7.744;2022-09-09T12:34:34;3.37;;;1.20;;
28431;SDS011;15664;51.302;7.744;2022-09-09T12:37:47;4.30;;;1.30;;
28431;SDS011;15664;51.302;7.744;2022-09-09T12:40:18;3.38;;;1.10;;
28431;SDS011;15664;51.302;7.744;2022-09-09T12:42:45;2.25;;;0.95;;
28431;SDS011;15664;51.302;7.744;2022-09-09T12:48:00;3.08;;;1.10;;
28431;SDS011;15664;51.302;7.744;2022-09-09T12:50:33;4.63;;;1.30;;
28431;SDS011;15664;51.302;7.744;2022-09-09T12:53:03;2.65;;;1.20;;
28431;SDS011;15664;51.302;7.744;2022-09-09T12:55:35;2.30;;;0.90;;
28431;SDS011;15664;51.302;7.744;2022-09-09T12:58:03;3.55;;;1.20;;
28431;SDS011;15664;51.302;7.744;2022-09-09T13:00:31;5.15;;;1.27;;
28431;SDS011;15664;51.302;7.744;2022-09-09T13:02:59;3.63;;;1.10;;
28431;SDS011;15664;51.302;7.744;2022-09-09T13:05:27;4.10;;;1.20;;
28431;SDS011;15664;51.302;7.744;2022-09-09T13:08:04;2.05;;;1.05;;
28431;SDS011;15664;51.302;7.744;2022-09-09T13:10:33;2.05;;;1.00;;
28431;SDS011;15664;51.302;7.744;2022-09-09T13:13:03;9.82;;;1.25;;
28431;SDS011;15664;51.302;7.744;2022-09-09T13:15:37;2.70;;;1.10;;
28431;SDS011;15664;51.302;7.744;2022-09-09T13:18:04;2.53;;;1.33;;
28431;SDS011;15664;51.302;7.744;2022-09-09T13:20:36;3.30;;;1.07;;
28431;SDS011;15664;51.302;7.744;2022-09-09T13:23:02;2.88;;;1.00;;
28431;SDS011;15664;51.302;7.744;2022-09-09T13:25:28;4.00;;;0.97;;
28431;SDS011;15664;51.302;7.744;2022-09-09T13:30:22;2.97;;;1.00;;
28431;SDS011;15664;51.302;7.744;2022-09-09T13:32:59;3.03;;;0.98;;
28431;SDS011;15664;51.302;7.744;2022-09-09T13:35:56;3.38;;;1.30;;
28431;SDS011;15664;51.302;7.744;2022-09-09T13:38:23;2.75;;;1.27;;
28431;SDS011;15664;51.302;7.744;2022-09-09T13:40:55;5.00;;;1.20;;
28431;SDS011;15664;51.302;7.744;2022-09-09T13:43:27;2.85;;;1.00;;
28431;SDS011;15664;51.302;7.744;2022-09-09T13:45:58;4.07;;;1.10;;
28431;SDS011;15664;51.302;7.744;2022-09-09T13:48:26;2.40;;;0.90;;
28431;SDS011;15664;51.302;7.744;2022-09-09T13:50:56;2.75;;;0.88;;
28431;SDS011;15664;51.302;7.744;2022-09-09T13:53:26;3.20;;;0.88;;
28431;SDS011;15664;51.302;7.744;2022-09-09T13:55:52;2.72;;;1.00;;
28431;SDS011;15664;51.302;7.744;2022-09-09T13:58:18;2.17;;;0.80;;
28431;SDS011;15664;51.302;7.744;2022-09-09T14:00:44;2.73;;;0.90;;
28431;SDS011;15664;51.302;7.744;2022-09-09T14:03:10;6.38;;;1.55;;
28431;SDS011;15664;51.302;7.744;2022-09-09T14:05:35;4.00;;;1.20;;
28431;SDS011;15664;51.302;7.744;2022-09-09T14:08:03;5.72;;;1.63;;
28431;SDS011;15664;51.302;7.744;2022-09-09T14:10:30;3.65;;;1.00;;
28431;SDS011;15664;51.302;7.744;2022-09-09T14:12:55;3.40;;;1.10;;
28431;SDS011;15664;51.302;7.744;2022-09-09T14:15:21;1.60;;;0.80;;
28431;SDS011;15664;51.302;7.744;2022-09-09T14:17:46;2.53;;;0.95;;
28431;SDS011;15664;51.302;7.744;2022-09-09T14:20:13;1.83;;;0.70;;
28431;SDS011;15664;51.302;7.744;2022-09-09T14:22:40;3.22;;;0.85;;
28431;SDS011;15664;51.302;7.744;2022-09-09T14:25:06;3.57;;;0.90;;
28431;SDS011;15664;51.302;7.744;2022-09-09T14:27:32;3.25;;;0.88;;
28431;SDS011;15664;51.302;7.744;2022-09-09T14:29:57;2.60;;;0.80;;
28431;SDS011;15664;51.302;7.744;2022-09-09T14:32:24;3.10;;;1.10;;
28431;SDS011;15664;51.302;7.744;2022-09-09T14:34:51;2.35;;;1.05;;
28431;SDS011;15664;51.302;7.744;2022-09-09T14:37:16;2.57;;;1.20;;
28431;SDS011;15664;51.302;7.744;2022-09-09T14:39:42;3.40;;;1.13;;
28431;SDS011;15664;51.302;7.744;2022-09-09T14:42:09;3.13;;;0.83;;
28431;SDS011;15664;51.302;7.744;2022-09-09T14:44:38;3.72;;;0.95;;
28431;SDS011;15664;51.302;7.744;2022-09-09T14:47:04;4.67;;;1.30;;
28431;SDS011;15664;51.302;7.744;2022-09-09T14:49:30;3.65;;;1.20;;
28431;SDS011;15664;51.302;7.744;2022-09-09T14:51:56;3.83;;;1.52;;
28431;SDS011;15664;51.302;7.744;2022-09-09T14:54:21;4.00;;;1.30;;
28431;SDS011;15664;51.302;7.744;2022-09-09T14:56:48;4.00;;;1.10;;
28431;SDS011;15664;51.302;7.744;2022-09-09T14:59:13;4.75;;;1.27;;
28431;SDS011;15664;51.302;7.744;2022-09-09T15:01:39;4.70;;;1.10;;
28431;SDS011;15664;51.302;7.744;2022-09-09T15:04:05;3.75;;;1.40;;
28431;SDS011;15664;51.302;7.744;2022-09-09T15:06:31;3.00;;;1.17;;
28431;SDS011;15664;51.302;7.744;2022-09-09T15:08:59;2.67;;;1.10;;
28431;SDS011;15664;51.302;7.744;2022-09-09T15:11:26;5.22;;;1.23;;
28431;SDS011;15664;51.302;7.744;2022-09-09T15:13:53;3.22;;;1.25;;
28431;SDS011;15664;51.302;7.744;2022-09-09T15:16:19;4.78;;;1.70;;
28431;SDS011;15664;51.302;7.744;2022-09-09T15:18:46;3.45;;;1.30;;
28431;SDS011;15664;51.302;7.744;2022-09-09T15:21:17;5.13;;;1.70;;
28431;SDS011;15664;51.302;7.744;2022-09-09T15:23:46;3.70;;;1.10;;
28431;SDS011;15664;51.302;7.744;2022-09-09T15:26:16;3.67;;;1.20;;
28431;SDS011;15664;51.302;7.744;2022-09-09T15:28:42;2.80;;;1.20;;
28431;SDS011;15664;51.302;7.744;2022-09-09T15:31:11;3.80;;;1.40;;
28431;SDS011;15664;51.302;7.744;2022-09-09T15:33:51;3.90;;;1.40;;
28431;SDS011;15664;51.302;7.744;2022-09-09T15:36:22;6.03;;;1.63;;
28431;SDS011;15664;51.302;7.744;2022-09-09T15:38:49;5.68;;;1.40;;
28431;SDS011;15664;51.302;7.744;2022-09-09T15:41:15;3.95;;;1.30;;
28431;SDS011;15664;51.302;7.744;2022-09-09T15:43:45;4.93;;;1.63;;
28431;SDS011;15664;51.302;7.744;2022-09-09T15:46:22;3.92;;;1.48;;
28431;SDS011;15664;51.302;7.744;2022-09-09T15:48:53;3.42;;;1.45;;
28431;SDS011;15664;51.302;7.744;2022-09-09T15:51:20;4.03;;;1.30;;
28431;SDS011;15664;51.302;7.744;2022-09-09T15:53:46;4.77;;;1.40;;
28431;SDS011;15664;51.302;7.744;2022-09-09T15:56:11;4.32;;;1.60;;
28431;SDS011;15664;51.302;7.744;2022-09-09T15:58:36;3.60;;;1.47;;
28431;SDS011;15664;51.302;7.744;2022-09-09T16:01:03;10.47;;;1.57;;
28431;SDS011;15664;51.302;7.744;2022-09-09T16:03:29;3.88;;;1.38;;
28431;SDS011;15664;51.302;7.744;2022-09-09T16:05:58;3.97;;;1.60;;
28431;SDS011;15664;51.302;7.744;2022-09-09T16:08:25;3.50;;;1.40;;
28431;SDS011;15664;51.302;7.744;2022-09-09T16:10:56;5.72;;;1.27;;
28431;SDS011;15664;51.302;7.744;2022-09-09T16:13:21;5.97;;;1.73;;
28431;SDS011;15664;51.302;7.744;2022-09-09T16:15:53;6.97;;;1.80;;
28431;SDS011;15664;51.302;7.744;2022-09-09T16:18:19;4.45;;;1.75;;
28431;SDS011;15664;51.302;7.744;2022-09-09T16:20:52;5.40;;;1.58;;
28431;SDS011;15664;51.302;7.744;2022-09-09T16:23:18;6.78;;;1.75;;
28431;SDS011;15664;51.302;7.744;2022-09-09T16:25:52;6.30;;;1.83;;
28431;SDS011;15664;51.302;7.744;2022-09-09T16:28:18;5.20;;;1.95;;
28431;SDS011;15664;51.302;7.744;2022-09-09T16:30:43;6.50;;;1.80;;
28431;SDS011;15664;51.302;7.744;2022-09-09T16:33:08;6.40;;;1.90;;
28431;SDS011;15664;51.302;7.744;2022-09-09T16:35:38;4.85;;;1.90;;
28431;SDS011;15664;51.302;7.744;2022-09-09T16:38:03;5.68;;;1.70;;
28431;SDS011;15664;51.302;7.744;2022-09-09T16:40:29;6.23;;;1.70;;
28431;SDS011;15664;51.302;7.744;2022-09-09T16:42:55;3.23;;;1.40;;
28431;SDS011;15664;51.302;7.744;2022-09-09T16:45:20;5.32;;;1.45;;
28431;SDS011;15664;51.302;7.744;2022-09-09T16:47:47;3.20;;;1.23;;
28431;SDS011;15664;51.302;7.744;2022-09-09T16:50:13;3.63;;;1.20;;
28431;SDS011;15664;51.302;7.744;2022-09-09T16:52:39;4.23;;;1.53;;
28431;SDS011;15664;51.302;7.744;2022-09-09T16:55:04;3.30;;;1.27;;
28431;SDS011;15664;51.302;7.744;2022-09-09T16:57:30;5.00;;;1.27;;
28431;SDS011;15664;51.302;7.744;2022-09-09T16:59:55;4.53;;;1.20;;
28431;SDS011;15664;51.302;7.744;2022-09-09T17:02:24;3.70;;;1.30;;
28431;SDS011;15664;51.302;7.744;2022-09-09T17:04:49;2.83;;;1.20;;